createdAt,value
2023-02-27T00:00:22.151Z,0.00
2023-02-27T00:01:22.129Z,0.00
2023-02-27T00:02:22.184Z,0.00
2023-02-27T00:03:22.124Z,0.00
2023-02-27T00:04:22.067Z,0.00
2023-02-27T00:05:22.085Z,0.00
2023-02-27T00:06:22.053Z,0.00
2023-02-27T00:07:22.079Z,0.00
2023-02-27T00:08:22.013Z,0.00
2023-02-27T00:09:22.050Z,0.00
2023-02-27T00:10:21.993Z,0.00
2023-02-27T00:11:22.000Z,0.00
2023-02-27T00:12:21.967Z,0.00
2023-02-27T00:13:22.005Z,0.00
2023-02-27T00:14:21.939Z,0.00
2023-02-27T00:15:21.948Z,0.00
2023-02-27T00:16:21.940Z,0.00
2023-02-27T00:17:21.941Z,0.00
2023-02-27T00:18:21.920Z,0.00
2023-02-27T00:19:21.916Z,0.00
2023-02-27T00:20:21.884Z,0.00
2023-02-27T00:21:21.874Z,0.00
2023-02-27T00:22:21.821Z,0.00
2023-02-27T00:23:21.857Z,0.00
2023-02-27T00:24:21.797Z,0.00
2023-02-27T00:25:21.819Z,0.00
2023-02-27T00:26:21.787Z,0.00
2023-02-27T00:27:21.879Z,0.00
2023-02-27T00:28:21.769Z,0.00
2023-02-27T00:29:21.768Z,0.00
2023-02-27T00:30:21.736Z,0.00
2023-02-27T00:31:21.815Z,0.00
2023-02-27T00:32:21.826Z,0.00
2023-02-27T00:33:21.721Z,0.00
2023-02-27T00:34:21.690Z,0.00
2023-02-27T00:35:21.698Z,0.00
2023-02-27T00:36:21.680Z,0.00
2023-02-27T00:37:21.666Z,0.00
2023-02-27T00:38:21.609Z,0.00
2023-02-27T00:39:21.671Z,0.00
2023-02-27T00:40:21.596Z,0.00
2023-02-27T00:41:21.619Z,0.00
2023-02-27T00:42:21.561Z,0.00
2023-02-27T00:43:21.584Z,0.00
2023-02-27T00:44:21.548Z,0.00
2023-02-27T00:45:21.545Z,0.00
2023-02-27T00:46:21.522Z,0.00
2023-02-27T00:47:21.529Z,0.00
2023-02-27T00:48:21.509Z,0.00
2023-02-27T00:49:21.503Z,0.00
2023-02-27T00:50:21.505Z,0.00
2023-02-27T00:51:21.486Z,0.00
2023-02-27T00:52:21.472Z,0.00
2023-02-27T00:53:21.480Z,0.00
2023-02-27T00:54:21.416Z,0.00
2023-02-27T00:55:21.446Z,0.00
2023-02-27T00:56:21.392Z,0.00
2023-02-27T00:57:21.454Z,0.00
2023-02-27T00:58:21.385Z,0.00
2023-02-27T00:59:21.387Z,0.00
2023-02-27T01:00:21.369Z,0.00
2023-02-27T01:01:21.343Z,0.00
2023-02-27T01:02:21.385Z,0.00
2023-02-27T01:03:21.337Z,0.00
2023-02-27T01:04:21.287Z,0.00
2023-02-27T01:05:21.318Z,0.00
2023-02-27T01:06:21.283Z,0.00
2023-02-27T01:07:21.275Z,0.00
2023-02-27T01:08:21.249Z,0.00
2023-02-27T01:09:21.309Z,0.00
2023-02-27T01:10:21.215Z,0.00
2023-02-27T01:11:21.238Z,0.00
2023-02-27T01:12:21.217Z,0.00
2023-02-27T01:13:21.216Z,0.00
2023-02-27T01:14:21.167Z,0.00
2023-02-27T01:15:21.154Z,0.00
2023-02-27T01:16:21.197Z,0.00
2023-02-27T01:17:21.144Z,0.00
2023-02-27T01:18:21.137Z,0.00
2023-02-27T01:19:21.146Z,0.00
2023-02-27T01:20:21.083Z,0.00
2023-02-27T01:21:21.106Z,0.00
2023-02-27T01:22:21.052Z,0.00
2023-02-27T01:23:21.094Z,0.00
2023-02-27T01:24:21.022Z,0.00
2023-02-27T01:25:21.028Z,0.00
2023-02-27T01:26:21.144Z,0.00
2023-02-27T01:27:21.013Z,0.00
2023-02-27T01:28:20.991Z,0.00
2023-02-27T01:29:20.994Z,0.00
2023-02-27T01:30:20.952Z,0.00
2023-02-27T01:31:20.990Z,0.00
2023-02-27T01:32:21.118Z,0.00
2023-02-27T01:33:20.960Z,0.00
2023-02-27T01:34:20.887Z,0.00
2023-02-27T01:35:20.922Z,0.00
2023-02-27T01:36:20.870Z,0.00
2023-02-27T01:37:20.907Z,0.00
2023-02-27T01:38:20.839Z,0.00
2023-02-27T01:39:20.864Z,0.00
2023-02-27T01:40:20.839Z,0.00
2023-02-27T01:41:20.833Z,0.00
2023-02-27T01:42:20.797Z,0.00
2023-02-27T01:43:20.807Z,0.00
2023-02-27T01:44:20.766Z,0.00
2023-02-27T01:45:20.774Z,0.00
2023-02-27T01:46:20.758Z,0.00
2023-02-27T01:47:20.770Z,0.00
2023-02-27T01:48:20.706Z,0.00
2023-02-27T01:49:20.747Z,0.00
2023-02-27T01:50:20.675Z,0.00
2023-02-27T01:51:20.698Z,0.00
2023-02-27T01:52:20.704Z,0.00
2023-02-27T01:53:20.685Z,0.00
2023-02-27T01:54:20.647Z,0.00
2023-02-27T01:55:20.657Z,0.00
2023-02-27T01:56:20.615Z,0.00
2023-02-27T01:57:20.618Z,0.00
2023-02-27T01:58:20.621Z,0.00
2023-02-27T01:59:20.591Z,0.00
2023-02-27T02:00:20.585Z,0.00
2023-02-27T02:01:20.618Z,0.00
2023-02-27T02:02:20.617Z,0.00
2023-02-27T02:03:20.561Z,0.00
2023-02-27T02:04:20.593Z,0.00
2023-02-27T02:05:20.521Z,0.00
2023-02-27T02:06:20.477Z,0.00
2023-02-27T02:07:20.520Z,0.00
2023-02-27T02:08:20.452Z,0.00
2023-02-27T02:09:20.460Z,0.00
2023-02-27T02:10:20.426Z,0.00
2023-02-27T02:11:20.493Z,0.00
2023-02-27T02:12:20.429Z,0.00
2023-02-27T02:13:20.442Z,0.00
2023-02-27T02:14:20.405Z,0.00
2023-02-27T02:15:20.377Z,0.00
2023-02-27T02:16:20.376Z,0.00
2023-02-27T02:17:20.363Z,0.00
2023-02-27T02:18:20.332Z,0.00
2023-02-27T02:19:20.330Z,0.00
2023-02-27T02:20:20.293Z,0.00
2023-02-27T02:21:20.310Z,0.00
2023-02-27T02:22:20.282Z,0.00
2023-02-27T02:23:20.308Z,0.00
2023-02-27T02:24:20.263Z,0.00
2023-02-27T02:25:20.258Z,0.00
2023-02-27T02:26:20.242Z,0.00
2023-02-27T02:27:20.238Z,0.00
2023-02-27T02:28:20.229Z,0.00
2023-02-27T02:29:20.201Z,0.00
2023-02-27T02:30:20.176Z,0.00
2023-02-27T02:31:20.258Z,0.00
2023-02-27T02:32:20.161Z,0.00
2023-02-27T02:33:20.161Z,0.00
2023-02-27T02:34:20.111Z,0.00
2023-02-27T02:35:20.153Z,0.00
2023-02-27T02:36:20.079Z,0.00
2023-02-27T02:37:20.090Z,0.00
2023-02-27T02:38:20.063Z,0.00
2023-02-27T02:39:20.073Z,0.00
2023-02-27T02:40:20.043Z,0.00
2023-02-27T02:41:20.044Z,0.00
2023-02-27T02:42:20.014Z,0.00
2023-02-27T02:43:20.014Z,0.00
2023-02-27T02:44:19.989Z,0.00
2023-02-27T02:45:20.024Z,0.00
2023-02-27T02:46:19.982Z,0.00
2023-02-27T02:47:19.960Z,0.00
2023-02-27T02:48:19.913Z,0.00
2023-02-27T02:49:19.945Z,0.00
2023-02-27T02:50:19.924Z,0.00
2023-02-27T02:51:19.920Z,0.00
2023-02-27T02:52:19.867Z,0.00
2023-02-27T02:53:19.890Z,0.00
2023-02-27T02:54:19.903Z,0.00
2023-02-27T02:55:19.850Z,0.00
2023-02-27T02:56:19.849Z,0.00
2023-02-27T02:57:19.825Z,0.00
2023-02-27T02:58:19.861Z,0.00
2023-02-27T02:59:19.820Z,0.00
2023-02-27T03:00:19.790Z,0.00
2023-02-27T03:01:19.754Z,0.00
2023-02-27T03:02:19.808Z,0.00
2023-02-27T03:03:19.739Z,0.00
2023-02-27T03:04:19.797Z,0.00
2023-02-27T03:05:19.713Z,0.00
2023-02-27T03:06:19.723Z,0.00
2023-02-27T03:07:19.725Z,0.00
2023-02-27T03:08:19.732Z,0.00
2023-02-27T03:09:19.662Z,0.00
2023-02-27T03:10:19.697Z,0.00
2023-02-27T03:11:19.627Z,0.00
2023-02-27T03:12:19.659Z,0.00
2023-02-27T03:13:19.655Z,0.00
2023-02-27T03:14:19.616Z,0.00
2023-02-27T03:15:19.579Z,0.00
2023-02-27T03:16:19.620Z,0.00
2023-02-27T03:17:19.560Z,0.00
2023-02-27T03:18:19.553Z,0.00
2023-02-27T03:19:19.597Z,0.00
2023-02-27T03:20:19.535Z,0.00
2023-02-27T03:21:19.524Z,0.00
2023-02-27T03:22:19.519Z,0.00
2023-02-27T03:23:19.478Z,0.00
2023-02-27T03:24:19.514Z,0.00
2023-02-27T03:25:19.538Z,0.00
2023-02-27T03:26:19.470Z,0.00
2023-02-27T03:27:19.411Z,0.00
2023-02-27T03:28:19.456Z,0.00
2023-02-27T03:29:19.390Z,0.00
2023-02-27T03:30:19.403Z,0.00
2023-02-27T03:31:19.471Z,0.00
2023-02-27T03:32:19.497Z,0.00
2023-02-27T03:33:19.333Z,0.00
2023-02-27T03:34:19.362Z,0.00
2023-02-27T03:35:19.323Z,0.00
2023-02-27T03:36:19.344Z,0.00
2023-02-27T03:37:19.311Z,0.00
2023-02-27T03:38:19.304Z,0.00
2023-02-27T03:39:19.281Z,0.00
2023-02-27T03:40:19.285Z,0.00
2023-02-27T03:41:19.249Z,0.00
2023-02-27T03:42:19.261Z,0.00
2023-02-27T03:43:19.202Z,0.00
2023-02-27T03:44:19.222Z,0.00
2023-02-27T03:45:19.261Z,0.00
2023-02-27T03:46:19.243Z,0.00
2023-02-27T03:47:19.170Z,0.00
2023-02-27T03:48:19.161Z,0.00
2023-02-27T03:49:19.141Z,0.00
2023-02-27T03:50:19.140Z,0.00
2023-02-27T03:51:19.110Z,0.00
2023-02-27T03:52:19.141Z,0.00
2023-02-27T03:53:19.080Z,0.00
2023-02-27T03:54:19.116Z,0.00
2023-02-27T03:55:19.061Z,0.00
2023-02-27T03:56:19.141Z,0.00
2023-02-27T03:57:19.038Z,0.00
2023-02-27T03:58:19.004Z,0.00
2023-02-27T03:59:19.042Z,0.00
2023-02-27T04:00:19.013Z,0.00
2023-02-27T04:01:19.007Z,0.00
2023-02-27T04:02:18.975Z,0.00
2023-02-27T04:03:18.979Z,0.00
2023-02-27T04:04:18.937Z,0.00
2023-02-27T04:05:18.978Z,0.00
2023-02-27T04:06:18.915Z,0.00
2023-02-27T04:07:18.917Z,0.00
2023-02-27T04:08:18.885Z,0.00
2023-02-27T04:09:18.938Z,0.00
2023-02-27T04:10:18.857Z,0.00
2023-02-27T04:11:18.873Z,0.00
2023-02-27T04:12:18.827Z,0.00
2023-02-27T04:13:18.867Z,0.00
2023-02-27T04:14:18.812Z,0.00
2023-02-27T04:15:18.854Z,0.00
2023-02-27T04:16:18.842Z,0.00
2023-02-27T04:17:18.803Z,0.00
2023-02-27T04:18:18.773Z,0.00
2023-02-27T04:19:18.772Z,0.00
2023-02-27T04:20:18.737Z,0.00
2023-02-27T04:21:18.777Z,0.00
2023-02-27T04:22:18.718Z,0.00
2023-02-27T04:23:18.716Z,0.00
2023-02-27T04:24:18.667Z,0.00
2023-02-27T04:25:18.720Z,0.00
2023-02-27T04:26:18.671Z,0.00
2023-02-27T04:27:18.665Z,0.00
2023-02-27T04:28:18.636Z,0.00
2023-02-27T04:29:18.701Z,0.00
2023-02-27T04:30:18.601Z,0.00
2023-02-27T04:31:18.738Z,0.00
2023-02-27T04:32:20.105Z,0.00
2023-02-27T04:33:18.585Z,0.00
2023-02-27T04:34:18.578Z,0.00
2023-02-27T04:35:18.570Z,0.00
2023-02-27T04:36:18.551Z,0.00
2023-02-27T04:37:18.540Z,0.00
2023-02-27T04:38:18.556Z,0.00
2023-02-27T04:39:18.512Z,0.00
2023-02-27T04:40:18.484Z,0.00
2023-02-27T04:41:18.489Z,0.00
2023-02-27T04:42:18.483Z,0.00
2023-02-27T04:43:18.484Z,0.00
2023-02-27T04:44:18.425Z,0.00
2023-02-27T04:45:18.432Z,0.00
2023-02-27T04:46:18.420Z,0.00
2023-02-27T04:47:18.443Z,0.00
2023-02-27T04:48:18.416Z,0.00
2023-02-27T04:49:18.398Z,0.00
2023-02-27T04:50:18.351Z,0.00
2023-02-27T04:51:18.372Z,0.00
2023-02-27T04:52:18.363Z,0.00
2023-02-27T04:53:18.330Z,0.00
2023-02-27T04:54:18.317Z,0.00
2023-02-27T04:55:18.312Z,0.00
2023-02-27T04:56:18.265Z,0.00
2023-02-27T04:57:18.300Z,0.00
2023-02-27T04:58:18.298Z,0.00
2023-02-27T04:59:18.305Z,0.00
2023-02-27T05:00:18.230Z,0.00
2023-02-27T05:01:18.250Z,0.00
2023-02-27T05:02:18.310Z,0.00
2023-02-27T05:03:18.234Z,0.00
2023-02-27T05:04:18.167Z,0.00
2023-02-27T05:05:18.179Z,0.00
2023-02-27T05:06:18.143Z,0.00
2023-02-27T05:07:18.181Z,0.00
2023-02-27T05:08:18.137Z,0.00
2023-02-27T05:09:18.121Z,0.00
2023-02-27T05:10:18.086Z,0.00
2023-02-27T05:11:18.136Z,0.00
2023-02-27T05:12:18.070Z,0.00
2023-02-27T05:13:18.091Z,0.00
2023-02-27T05:14:18.077Z,0.00
2023-02-27T05:15:18.055Z,0.00
2023-02-27T05:16:18.031Z,0.00
2023-02-27T05:17:18.051Z,0.00
2023-02-27T05:18:18.132Z,0.00
2023-02-27T05:19:17.997Z,0.00
2023-02-27T05:20:17.987Z,0.00
2023-02-27T05:21:17.994Z,0.00
2023-02-27T05:22:17.947Z,0.00
2023-02-27T05:23:17.948Z,0.00
2023-02-27T05:24:17.919Z,0.00
2023-02-27T05:25:17.940Z,0.00
2023-02-27T05:26:17.886Z,0.00
2023-02-27T05:27:17.940Z,0.00
2023-02-27T05:28:17.851Z,0.00
2023-02-27T05:29:17.912Z,0.00
2023-02-27T05:30:17.854Z,0.00
2023-02-27T05:31:17.835Z,0.00
2023-02-27T05:32:17.940Z,0.00
2023-02-27T05:33:17.831Z,0.00
2023-02-27T05:34:17.808Z,0.00
2023-02-27T05:35:17.794Z,0.00
2023-02-27T05:36:17.761Z,0.00
2023-02-27T05:37:17.774Z,0.00
2023-02-27T05:38:17.744Z,0.00
2023-02-27T05:39:17.809Z,0.00
2023-02-27T05:40:17.719Z,0.00
2023-02-27T05:41:17.714Z,0.00
2023-02-27T05:42:17.677Z,0.00
2023-02-27T05:43:17.694Z,0.00
2023-02-27T05:44:17.663Z,0.00
2023-02-27T05:45:17.681Z,0.00
2023-02-27T05:46:17.686Z,0.00
2023-02-27T05:47:17.632Z,0.00
2023-02-27T05:48:19.550Z,0.00
2023-02-27T05:49:17.630Z,0.00
2023-02-27T05:50:17.571Z,0.00
2023-02-27T05:51:17.621Z,0.00
2023-02-27T05:52:17.548Z,0.00
2023-02-27T05:53:17.563Z,0.00
2023-02-27T05:54:17.538Z,0.00
2023-02-27T05:55:18.786Z,0.00
2023-02-27T05:56:17.520Z,0.00
2023-02-27T05:57:17.516Z,4.00
2023-02-27T05:58:17.490Z,0.00
2023-02-27T05:59:17.502Z,0.00
2023-02-27T06:00:17.446Z,0.00
2023-02-27T06:01:17.461Z,4.00
2023-02-27T06:02:17.493Z,0.00
2023-02-27T06:03:17.453Z,4.00
2023-02-27T06:04:17.429Z,4.00
2023-02-27T06:05:17.423Z,0.00
2023-02-27T06:06:17.379Z,4.00
2023-02-27T06:07:17.419Z,0.00
2023-02-27T06:08:17.373Z,4.00
2023-02-27T06:09:17.367Z,8.00
2023-02-27T06:10:17.330Z,4.00
2023-02-27T06:11:17.340Z,8.00
2023-02-27T06:12:17.312Z,4.00
2023-02-27T06:13:17.318Z,8.00
2023-02-27T06:14:17.292Z,8.00
2023-02-27T06:15:17.272Z,8.00
2023-02-27T06:16:17.310Z,8.00
2023-02-27T06:17:17.297Z,8.00
2023-02-27T06:18:17.246Z,12.00
2023-02-27T06:19:17.233Z,12.00
2023-02-27T06:20:17.200Z,12.00
2023-02-27T06:21:17.224Z,12.00
2023-02-27T06:22:17.172Z,16.00
2023-02-27T06:23:17.192Z,16.00
2023-02-27T06:24:17.139Z,16.00
2023-02-27T06:25:17.181Z,20.00
2023-02-27T06:26:17.124Z,20.00
2023-02-27T06:27:17.166Z,24.00
2023-02-27T06:28:17.109Z,28.00
2023-02-27T06:29:17.099Z,28.00
2023-02-27T06:30:17.283Z,32.00
2023-02-27T06:31:17.147Z,36.00
2023-02-27T06:32:17.145Z,56.00
2023-02-27T06:33:17.052Z,84.00
2023-02-27T06:34:17.013Z,108.00
2023-02-27T06:35:17.010Z,112.00
2023-02-27T06:36:16.997Z,96.00
2023-02-27T06:37:17.011Z,92.00
2023-02-27T06:38:16.974Z,116.00
2023-02-27T06:39:16.959Z,164.00
2023-02-27T06:40:16.955Z,188.00
2023-02-27T06:41:16.950Z,204.00
2023-02-27T06:42:16.930Z,216.00
2023-02-27T06:43:16.924Z,220.00
2023-02-27T06:44:19.393Z,224.00
2023-02-27T06:45:16.891Z,220.00
2023-02-27T06:46:16.914Z,228.00
2023-02-27T06:47:16.887Z,236.00
2023-02-27T06:48:16.818Z,252.00
2023-02-27T06:49:16.869Z,260.00
2023-02-27T06:50:16.826Z,284.00
2023-02-27T06:51:16.800Z,328.00
2023-02-27T06:52:16.778Z,364.00
2023-02-27T06:53:16.823Z,376.00
2023-02-27T06:54:16.790Z,384.00
2023-02-27T06:55:16.759Z,400.00
2023-02-27T06:56:16.729Z,432.00
2023-02-27T06:57:16.732Z,468.00
2023-02-27T06:58:16.698Z,500.00
2023-02-27T06:59:16.725Z,528.00
2023-02-27T07:00:16.666Z,540.00
2023-02-27T07:01:16.722Z,540.00
2023-02-27T07:02:16.640Z,524.00
2023-02-27T07:03:16.674Z,512.00
2023-02-27T07:04:16.663Z,512.00
2023-02-27T07:05:16.631Z,528.00
2023-02-27T07:06:16.598Z,508.00
2023-02-27T07:07:35.661Z,488.00
2023-02-27T07:08:16.591Z,488.00
2023-02-27T07:09:16.540Z,512.00
2023-02-27T07:10:16.585Z,556.00
2023-02-27T07:11:16.553Z,592.00
2023-02-27T07:12:16.526Z,612.00
2023-02-27T07:13:19.301Z,612.00
2023-02-27T07:14:16.538Z,604.00
2023-02-27T07:15:16.478Z,600.00
2023-02-27T07:16:16.557Z,600.00
2023-02-27T07:17:16.443Z,624.00
2023-02-27T07:18:16.465Z,652.00
2023-02-27T07:19:16.412Z,648.00
2023-02-27T07:20:16.554Z,612.00
2023-02-27T07:21:16.409Z,560.00
2023-02-27T07:22:16.430Z,520.00
2023-02-27T07:23:16.396Z,512.00
2023-02-27T07:24:16.389Z,532.00
2023-02-27T07:25:16.359Z,572.00
2023-02-27T07:26:16.364Z,616.00
2023-02-27T07:27:16.313Z,648.00
2023-02-27T07:28:16.333Z,688.00
2023-02-27T07:29:16.285Z,752.00
2023-02-27T07:30:16.324Z,824.00
2023-02-27T07:31:16.315Z,912.00
2023-02-27T07:32:16.269Z,992.00
2023-02-27T07:33:16.247Z,1076.00
2023-02-27T07:34:16.266Z,1148.00
2023-02-27T07:35:16.219Z,1204.00
2023-02-27T07:36:16.293Z,1236.00
2023-02-27T07:37:16.195Z,1268.00
2023-02-27T07:38:16.195Z,1288.00
2023-02-27T07:39:16.155Z,1316.00
2023-02-27T07:40:16.177Z,1332.00
2023-02-27T07:41:29.546Z,1348.00
2023-02-27T07:42:16.157Z,1356.00
2023-02-27T07:43:16.113Z,1360.00
2023-02-27T07:44:16.141Z,1356.00
2023-02-27T07:45:16.081Z,1356.00
2023-02-27T07:46:16.118Z,1360.00
2023-02-27T07:47:16.075Z,1348.00
2023-02-27T07:48:16.083Z,1332.00
2023-02-27T07:49:16.022Z,1336.00
2023-02-27T07:50:16.036Z,1316.00
2023-02-27T07:51:16.040Z,1320.00
2023-02-27T07:52:16.010Z,1312.00
2023-02-27T07:53:16.009Z,1308.00
2023-02-27T07:54:15.994Z,1304.00
2023-02-27T07:55:15.953Z,1300.00
2023-02-27T07:56:16.009Z,1300.00
2023-02-27T07:57:15.947Z,1300.00
2023-02-27T07:58:15.951Z,1308.00
2023-02-27T07:59:15.902Z,1308.00
2023-02-27T08:00:15.960Z,1304.00
2023-02-27T08:01:15.883Z,1312.00
2023-02-27T08:02:15.883Z,1304.00
2023-02-27T08:03:15.856Z,1296.00
2023-02-27T08:04:15.914Z,1296.00
2023-02-27T08:05:15.824Z,1300.00
2023-02-27T08:06:15.853Z,1292.00
2023-02-27T08:07:15.831Z,1284.00
2023-02-27T08:08:15.809Z,1280.00
2023-02-27T08:09:15.770Z,1268.00
2023-02-27T08:10:15.792Z,1252.00
2023-02-27T08:11:15.772Z,1236.00
2023-02-27T08:12:15.785Z,1224.00
2023-02-27T08:13:17.934Z,1224.00
2023-02-27T08:14:15.728Z,1232.00
2023-02-27T08:15:15.689Z,1228.00
2023-02-27T08:16:15.761Z,1232.00
2023-02-27T08:17:15.672Z,1236.00
2023-02-27T08:18:15.708Z,1244.00
2023-02-27T08:19:15.648Z,1244.00
2023-02-27T08:20:15.657Z,1248.00
2023-02-27T08:21:15.616Z,1252.00
2023-02-27T08:22:15.642Z,1248.00
2023-02-27T08:23:15.621Z,1236.00
2023-02-27T08:24:15.591Z,1236.00
2023-02-27T08:25:15.567Z,1252.00
2023-02-27T08:26:15.573Z,1248.00
2023-02-27T08:27:15.554Z,1248.00
2023-02-27T08:28:15.559Z,1268.00
2023-02-27T08:29:17.016Z,1272.00
2023-02-27T08:30:15.528Z,1292.00
2023-02-27T08:31:15.501Z,1288.00
2023-02-27T08:32:15.536Z,1288.00
2023-02-27T08:33:15.459Z,1308.00
2023-02-27T08:34:15.899Z,1320.00
2023-02-27T08:35:15.431Z,1328.00
2023-02-27T08:36:15.433Z,1324.00
2023-02-27T08:37:15.380Z,1336.00
2023-02-27T08:38:15.421Z,1352.00
2023-02-27T08:39:15.402Z,1356.00
2023-02-27T08:40:15.398Z,1376.00
2023-02-27T08:41:15.377Z,1408.00
2023-02-27T08:42:15.366Z,1424.00
2023-02-27T08:43:15.388Z,1444.00
2023-02-27T08:44:15.340Z,1460.00
2023-02-27T08:45:15.311Z,1484.00
2023-02-27T08:46:15.359Z,1492.00
2023-02-27T08:47:15.259Z,1520.00
2023-02-27T08:48:15.298Z,1552.00
2023-02-27T08:49:15.238Z,1560.00
2023-02-27T08:50:15.258Z,1576.00
2023-02-27T08:51:15.294Z,1584.00
2023-02-27T08:52:15.250Z,1612.00
2023-02-27T08:53:15.178Z,1620.00
2023-02-27T08:54:15.186Z,1608.00
2023-02-27T08:55:15.198Z,1648.00
2023-02-27T08:56:15.197Z,1672.00
2023-02-27T08:57:15.117Z,1676.00
2023-02-27T08:58:17.008Z,1684.00
2023-02-27T08:59:15.105Z,1696.00
2023-02-27T09:00:15.210Z,1688.00
2023-02-27T09:01:15.112Z,1684.00
2023-02-27T09:02:15.088Z,1696.00
2023-02-27T09:03:15.068Z,1696.00
2023-02-27T09:04:15.062Z,1712.00
2023-02-27T09:05:15.033Z,1708.00
2023-02-27T09:06:15.042Z,1708.00
2023-02-27T09:07:14.984Z,1712.00
2023-02-27T09:08:14.996Z,1712.00
2023-02-27T09:09:14.989Z,1708.00
2023-02-27T09:10:14.990Z,1712.00
2023-02-27T09:11:14.937Z,1704.00
2023-02-27T09:12:14.969Z,1696.00
2023-02-27T09:13:14.945Z,1704.00
2023-02-27T09:14:14.943Z,1704.00
2023-02-27T09:15:14.908Z,1696.00
2023-02-27T09:16:14.925Z,1700.00
2023-02-27T09:17:14.882Z,1696.00
2023-02-27T09:18:14.886Z,1692.00
2023-02-27T09:19:14.848Z,1672.00
2023-02-27T09:20:14.858Z,1676.00
2023-02-27T09:21:14.830Z,1648.00
2023-02-27T09:22:14.845Z,1660.00
2023-02-27T09:23:14.792Z,1668.00
2023-02-27T09:24:20.170Z,1668.00
2023-02-27T09:25:14.756Z,1660.00
2023-02-27T09:26:14.827Z,1668.00
2023-02-27T09:27:14.727Z,1668.00
2023-02-27T09:28:14.740Z,1652.00
2023-02-27T09:29:14.765Z,1640.00
2023-02-27T09:30:14.737Z,1632.00
2023-02-27T09:31:14.745Z,1636.00
2023-02-27T09:32:14.800Z,1640.00
2023-02-27T09:33:14.665Z,1644.00
2023-02-27T09:34:14.665Z,1644.00
2023-02-27T09:35:14.630Z,1644.00
2023-02-27T09:36:14.644Z,1644.00
2023-02-27T09:37:14.591Z,1640.00
2023-02-27T09:38:14.619Z,1640.00
2023-02-27T09:39:14.581Z,1644.00
2023-02-27T09:40:14.599Z,1648.00
2023-02-27T09:41:14.564Z,1652.00
2023-02-27T09:42:14.574Z,1652.00
2023-02-27T09:43:14.567Z,1652.00
2023-02-27T09:44:14.577Z,1660.00
2023-02-27T09:45:14.518Z,1664.00
2023-02-27T09:46:14.531Z,1672.00
2023-02-27T09:47:14.468Z,1676.00
2023-02-27T09:48:14.492Z,1684.00
2023-02-27T09:49:14.432Z,1692.00
2023-02-27T09:50:14.446Z,1708.00
2023-02-27T09:51:14.423Z,1716.00
2023-02-27T09:52:14.427Z,1732.00
2023-02-27T09:53:14.493Z,1756.00
2023-02-27T09:54:14.401Z,1772.00
2023-02-27T09:55:14.371Z,1792.00
2023-02-27T09:56:14.372Z,1816.00
2023-02-27T09:57:14.338Z,1840.00
2023-02-27T09:58:14.356Z,1904.00
2023-02-27T09:59:14.291Z,1968.00
2023-02-27T10:00:14.314Z,2032.00
2023-02-27T10:01:14.282Z,2084.00
2023-02-27T10:02:14.312Z,2140.00
2023-02-27T10:03:14.367Z,2212.00
2023-02-27T10:04:14.260Z,2324.00
2023-02-27T10:05:14.241Z,2496.00
2023-02-27T10:06:14.249Z,2612.00
2023-02-27T10:07:14.196Z,3684.00
2023-02-27T10:08:14.271Z,4164.00
2023-02-27T10:09:14.173Z,4764.00
2023-02-27T10:10:14.176Z,4932.00
2023-02-27T10:11:14.136Z,5184.00
2023-02-27T10:12:14.184Z,5512.00
2023-02-27T10:13:14.126Z,5980.00
2023-02-27T10:14:14.138Z,6444.00
2023-02-27T10:15:14.084Z,6816.00
2023-02-27T10:16:14.181Z,7112.00
2023-02-27T10:17:14.075Z,7160.00
2023-02-27T10:18:26.160Z,7604.00
2023-02-27T10:19:14.058Z,8040.00
2023-02-27T10:20:14.053Z,7952.00
2023-02-27T10:21:14.014Z,8152.00
2023-02-27T10:22:14.039Z,8296.00
2023-02-27T10:23:14.003Z,8252.00
2023-02-27T10:24:14.021Z,8612.00
2023-02-27T10:25:29.660Z,8732.00
2023-02-27T10:26:13.962Z,8824.00
2023-02-27T10:27:13.945Z,8848.00
2023-02-27T10:28:13.952Z,8920.00
2023-02-27T10:29:13.930Z,9008.00
2023-02-27T10:30:20.259Z,8940.00
2023-02-27T10:31:13.927Z,8928.00
2023-02-27T10:32:13.913Z,9024.00
2023-02-27T10:33:13.903Z,8904.00
2023-02-27T10:34:13.898Z,8896.00
2023-02-27T10:35:13.824Z,8832.00
2023-02-27T10:36:23.569Z,8196.00
2023-02-27T10:37:13.908Z,4888.00
2023-02-27T10:38:13.798Z,1024.00
2023-02-27T10:39:13.800Z,384.00
2023-02-27T10:40:13.804Z,328.00
2023-02-27T10:41:13.752Z,320.00
2023-02-27T10:42:13.763Z,316.00
2023-02-27T10:43:13.725Z,316.00
2023-02-27T10:44:14.489Z,312.00
2023-02-27T10:45:13.726Z,308.00
2023-02-27T10:46:13.748Z,300.00
2023-02-27T10:47:13.650Z,300.00
2023-02-27T10:48:13.670Z,296.00
2023-02-27T10:49:13.641Z,292.00
2023-02-27T10:50:13.670Z,288.00
2023-02-27T10:51:13.638Z,284.00
2023-02-27T10:52:13.622Z,284.00
2023-02-27T10:53:13.570Z,284.00
2023-02-27T10:54:13.600Z,280.00
2023-02-27T10:55:13.568Z,272.00
2023-02-27T10:56:13.547Z,272.00
2023-02-27T10:57:13.552Z,272.00
2023-02-27T10:58:13.529Z,268.00
2023-02-27T10:59:13.502Z,264.00
2023-02-27T11:00:13.536Z,260.00
2023-02-27T11:01:13.540Z,264.00
2023-02-27T11:02:13.495Z,260.00
2023-02-27T11:03:13.559Z,256.00
2023-02-27T11:04:13.505Z,256.00
2023-02-27T11:05:13.429Z,268.00
2023-02-27T11:06:13.430Z,312.00
2023-02-27T11:07:13.373Z,280.00
2023-02-27T11:08:13.413Z,248.00
2023-02-27T11:09:13.371Z,244.00
2023-02-27T11:10:13.411Z,244.00
2023-02-27T11:11:13.344Z,244.00
2023-02-27T11:12:13.363Z,268.00
2023-02-27T11:13:13.322Z,276.00
2023-02-27T11:14:13.342Z,244.00
2023-02-27T11:15:13.304Z,248.00
2023-02-27T11:16:13.377Z,260.00
2023-02-27T11:17:13.282Z,292.00
2023-02-27T11:18:13.274Z,296.00
2023-02-27T11:19:14.487Z,280.00
2023-02-27T11:20:13.258Z,260.00
2023-02-27T11:21:13.215Z,224.00
2023-02-27T11:22:13.249Z,228.00
2023-02-27T11:23:13.177Z,224.00
2023-02-27T11:24:13.207Z,264.00
2023-02-27T11:25:13.194Z,216.00
2023-02-27T11:26:13.163Z,216.00
2023-02-27T11:27:13.173Z,220.00
2023-02-27T11:28:13.113Z,224.00
2023-02-27T11:29:13.130Z,220.00
2023-02-27T11:30:13.093Z,252.00
2023-02-27T11:31:13.191Z,272.00
2023-02-27T11:32:13.125Z,212.00
2023-02-27T11:33:13.074Z,212.00
2023-02-27T11:34:13.040Z,224.00
2023-02-27T11:35:13.067Z,236.00
2023-02-27T11:36:13.029Z,236.00
2023-02-27T11:37:13.061Z,212.00
2023-02-27T11:38:12.989Z,212.00
2023-02-27T11:39:12.990Z,216.00
2023-02-27T11:40:13.037Z,208.00
2023-02-27T11:41:12.970Z,204.00
2023-02-27T11:42:12.964Z,224.00
2023-02-27T11:43:12.945Z,236.00
2023-02-27T11:44:12.906Z,272.00
2023-02-27T11:45:12.941Z,204.00
2023-02-27T11:46:47.115Z,204.00
2023-02-27T11:47:13.006Z,204.00
2023-02-27T11:48:12.862Z,228.00
2023-02-27T11:49:12.889Z,240.00
2023-02-27T11:50:12.980Z,200.00
2023-02-27T11:51:12.845Z,196.00
2023-02-27T11:52:12.812Z,196.00
2023-02-27T11:53:12.816Z,200.00
2023-02-27T11:54:12.773Z,204.00
2023-02-27T11:55:12.819Z,200.00
2023-02-27T11:56:12.779Z,196.00
2023-02-27T11:57:12.761Z,196.00
2023-02-27T11:58:12.751Z,192.00
2023-02-27T11:59:12.760Z,196.00
2023-02-27T12:00:12.701Z,196.00
2023-02-27T12:01:12.693Z,204.00
2023-02-27T12:02:12.668Z,196.00
2023-02-27T12:03:12.756Z,196.00
2023-02-27T12:04:12.746Z,196.00
2023-02-27T12:05:12.644Z,200.00
2023-02-27T12:06:12.606Z,216.00
2023-02-27T12:07:12.634Z,200.00
2023-02-27T12:08:12.576Z,212.00
2023-02-27T12:09:12.630Z,200.00
2023-02-27T12:10:12.586Z,192.00
2023-02-27T12:11:14.650Z,192.00
2023-02-27T12:12:12.529Z,196.00
2023-02-27T12:13:12.539Z,224.00
2023-02-27T12:14:12.540Z,224.00
2023-02-27T12:15:12.513Z,192.00
2023-02-27T12:16:12.517Z,192.00
2023-02-27T12:17:12.501Z,196.00
2023-02-27T12:18:12.447Z,224.00
2023-02-27T12:19:12.464Z,248.00
2023-02-27T12:20:12.448Z,204.00
2023-02-27T12:21:12.449Z,184.00
2023-02-27T12:22:12.412Z,196.00
2023-02-27T12:23:12.406Z,200.00
2023-02-27T12:24:12.419Z,200.00
2023-02-27T12:25:12.373Z,204.00
2023-02-27T12:26:12.356Z,192.00
2023-02-27T12:27:12.359Z,204.00
2023-02-27T12:28:12.325Z,220.00
2023-02-27T12:29:12.342Z,208.00
2023-02-27T12:30:12.338Z,236.00
2023-02-27T12:31:12.342Z,180.00
2023-02-27T12:32:12.441Z,200.00
2023-02-27T12:33:12.284Z,200.00
2023-02-27T12:34:12.260Z,176.00
2023-02-27T12:35:12.259Z,156.00
2023-02-27T12:36:12.194Z,192.00
2023-02-27T12:37:12.199Z,212.00
2023-02-27T12:38:12.176Z,248.00
2023-02-27T12:39:12.201Z,232.00
2023-02-27T12:40:12.182Z,256.00
2023-02-27T12:41:12.187Z,268.00
2023-02-27T12:42:12.133Z,276.00
2023-02-27T12:43:12.152Z,244.00
2023-02-27T12:44:12.111Z,208.00
2023-02-27T12:45:12.163Z,252.00
2023-02-27T12:46:12.260Z,240.00